sensor_id;sensor_type;location;lat;lon;timestamp;P1;P2;P0
45112;PMS5003;30873;53.908;27.576;2022-09-09T00:03:22;4.3;4;2.1
45112;PMS5003;30873;53.908;27.576;2022-09-09T00:08:19;4.9;4.3;2
45112;PMS5003;30873;53.908;27.576;2022-09-09T00:13:29;5.2;4.6;2.1
45112;PMS5003;30873;53.908;27.576;2022-09-09T00:23:27;4.8;3.6;1.9
45112;PMS5003;30873;53.908;27.576;2022-09-09T00:28:20;6.3;4.6;2.7
45112;PMS5003;30873;53.908;27.576;2022-09-09T00:33:31;4.9;4;2
45112;PMS5003;30873;53.908;27.576;2022-09-09T00:38:41;5.3;4.3;2
45112;PMS5003;30873;53.908;27.576;2022-09-09T00:43:25;3.6;3.3;2.1
45112;PMS5003;30873;53.908;27.576;2022-09-09T00:48:35;4.6;4.2;2.6
45112;PMS5003;30873;53.908;27.576;2022-09-09T00:53:39;5.1;3.9;2
45112;PMS5003;30873;53.908;27.576;2022-09-09T00:58:19;5;4.1;2.3
45112;PMS5003;30873;53.908;27.576;2022-09-09T01:03:46;5.5;5.2;2.8
45112;PMS5003;30873;53.908;27.576;2022-09-09T01:08:49;6.2;4.9;2.3
45112;PMS5003;30873;53.908;27.576;2022-09-09T01:13:35;5.9;4.9;2.7
45112;PMS5003;30873;53.908;27.576;2022-09-09T01:18:20;4.9;4.5;2.6
45112;PMS5003;30873;53.908;27.576;2022-09-09T01:23:30;5.2;4.5;2.5
45112;PMS5003;30873;53.908;27.576;2022-09-09T01:28:31;4.6;4.4;2.7
45112;PMS5003;30873;53.908;27.576;2022-09-09T01:33:35;6.8;5.3;2.7
45112;PMS5003;30873;53.908;27.576;2022-09-09T01:38:29;5.7;4.6;2.6
45112;PMS5003;30873;53.908;27.576;2022-09-09T01:43:20;6.4;5.5;2.7
45112;PMS5003;30873;53.908;27.576;2022-09-09T01:48:19;5.3;4.9;2.5
45112;PMS5003;30873;53.908;27.576;2022-09-09T01:53:47;6.1;5;2.5
45112;PMS5003;30873;53.908;27.576;2022-09-09T01:58:24;5;3.7;2.4
45112;PMS5003;30873;53.908;27.576;2022-09-09T02:03:25;5.4;4.5;2.6
45112;PMS5003;30873;53.908;27.576;2022-09-09T02:08:24;5.2;4.7;2.7
45112;PMS5003;30873;53.908;27.576;2022-09-09T02:13:25;5.9;4.9;2.7
45112;PMS5003;30873;53.908;27.576;2022-09-09T02:18:22;5.3;4.8;2.4
45112;PMS5003;30873;53.908;27.576;2022-09-09T02:23:29;6.6;5.8;3.7
45112;PMS5003;30873;53.908;27.576;2022-09-09T02:28:19;7.3;6;3.9
45112;PMS5003;30873;53.908;27.576;2022-09-09T02:33:30;6.5;5.4;2.9
45112;PMS5003;30873;53.908;27.576;2022-09-09T02:38:17;5.7;4.1;2.2
45112;PMS5003;30873;53.908;27.576;2022-09-09T02:43:19;4.7;4.4;2.4
45112;PMS5003;30873;53.908;27.576;2022-09-09T02:48:21;5.5;4.4;2.3
45112;PMS5003;30873;53.908;27.576;2022-09-09T02:53:43;5.4;4.6;2.6
45112;PMS5003;30873;53.908;27.576;2022-09-09T02:58:29;5.7;5.2;2.9
45112;PMS5003;30873;53.908;27.576;2022-09-09T03:03:19;9;7.3;4.3
45112;PMS5003;30873;53.908;27.576;2022-09-09T03:08:57;10.4;8.2;4.9
45112;PMS5003;30873;53.908;27.576;2022-09-09T03:13:29;12.3;10.3;6.4
45112;PMS5003;30873;53.908;27.576;2022-09-09T03:18:19;9.1;7.8;4.4
45112;PMS5003;30873;53.908;27.576;2022-09-09T03:23:29;7.2;6.3;4
45112;PMS5003;30873;53.908;27.576;2022-09-09T03:28:25;6.1;5.3;3
45112;PMS5003;30873;53.908;27.576;2022-09-09T03:33:19;5.6;4.8;2.8
45112;PMS5003;30873;53.908;27.576;2022-09-09T03:38:17;5.9;5.3;2.8
45112;PMS5003;30873;53.908;27.576;2022-09-09T03:43:19;5;4.2;2.3
45112;PMS5003;30873;53.908;27.576;2022-09-09T03:48:19;6.3;5;3.3
45112;PMS5003;30873;53.908;27.576;2022-09-09T03:53:39;6.7;5.5;3.7
45112;PMS5003;30873;53.908;27.576;2022-09-09T03:58:29;6.1;5.6;3.5
45112;PMS5003;30873;53.908;27.576;2022-09-09T04:03:19;5.7;5.2;3.2
45112;PMS5003;30873;53.908;27.576;2022-09-09T04:08:18;5.6;4.9;3.2
45112;PMS5003;30873;53.908;27.576;2022-09-09T04:13:41;5.9;5.2;3.2
45112;PMS5003;30873;53.908;27.576;2022-09-09T04:18:17;5.4;5.1;2.8
45112;PMS5003;30873;53.908;27.576;2022-09-09T04:23:18;7.2;6.3;3.9
45112;PMS5003;30873;53.908;27.576;2022-09-09T04:28:28;5.3;5;3.6
45112;PMS5003;30873;53.908;27.576;2022-09-09T04:33:19;6.4;5.9;3.8
45112;PMS5003;30873;53.908;27.576;2022-09-09T04:38:35;6;5.2;3.5
45112;PMS5003;30873;53.908;27.576;2022-09-09T04:43:17;7.2;6.2;4.2
45112;PMS5003;30873;53.908;27.576;2022-09-09T04:48:17;7.9;6.6;4.4
45112;PMS5003;30873;53.908;27.576;2022-09-09T04:53:17;7.5;6.2;4.4
45112;PMS5003;30873;53.908;27.576;2022-09-09T04:58:19;7.2;6.3;3.9
45112;PMS5003;30873;53.908;27.576;2022-09-09T05:03:19;11.9;8.7;4.9
45112;PMS5003;30873;53.908;27.576;2022-09-09T05:08:29;8.1;6.4;3.7
45112;PMS5003;30873;53.908;27.576;2022-09-09T05:13:19;7.5;7.3;4.7
45112;PMS5003;30873;53.908;27.576;2022-09-09T05:18:41;8.2;7.5;4.9
45112;PMS5003;30873;53.908;27.576;2022-09-09T05:23:19;9.2;8.4;5.9
45112;PMS5003;30873;53.908;27.576;2022-09-09T05:28:19;12.6;10.7;6.6
45112;PMS5003;30873;53.908;27.576;2022-09-09T05:33:17;14.2;11.7;6.6
45112;PMS5003;30873;53.908;27.576;2022-09-09T05:38:19;17;14.1;8.9
45112;PMS5003;30873;53.908;27.576;2022-09-09T05:43:31;12.1;10.9;6.5
45112;PMS5003;30873;53.908;27.576;2022-09-09T05:48:19;13.9;12.1;8.2
45112;PMS5003;30873;53.908;27.576;2022-09-09T05:53:30;18.9;15.8;11.1
45112;PMS5003;30873;53.908;27.576;2022-09-09T05:58:19;46.9;39.8;28.9
45112;PMS5003;30873;53.908;27.576;2022-09-09T06:03:19;40.5;35;22.7
45112;PMS5003;30873;53.908;27.576;2022-09-09T06:08:27;51.4;41.4;26.4
45112;PMS5003;30873;53.908;27.576;2022-09-09T06:13:19;44.4;36.7;23.5
45112;PMS5003;30873;53.908;27.576;2022-09-09T06:18:19;41.5;35;21.9
45112;PMS5003;30873;53.908;27.576;2022-09-09T06:23:19;35.7;31.4;19.1
45112;PMS5003;30873;53.908;27.576;2022-09-09T06:28:32;37;33.2;19.7
45112;PMS5003;30873;53.908;27.576;2022-09-09T06:33:19;39.9;34.1;21.2
45112;PMS5003;30873;53.908;27.576;2022-09-09T06:38:29;36.3;31.3;18.9
45112;PMS5003;30873;53.908;27.576;2022-09-09T06:43:19;16.5;13.7;9.3
45112;PMS5003;30873;53.908;27.576;2022-09-09T06:48:19;16.8;14.1;9.1
45112;PMS5003;30873;53.908;27.576;2022-09-09T06:53:20;25.1;21.4;13
45112;PMS5003;30873;53.908;27.576;2022-09-09T06:58:29;22.9;19.4;12.8
45112;PMS5003;30873;53.908;27.576;2022-09-09T07:03:40;15.9;13.2;8
45112;PMS5003;30873;53.908;27.576;2022-09-09T07:08:27;16.3;12.6;8
45112;PMS5003;30873;53.908;27.576;2022-09-09T07:13:23;15.3;13.7;9.2
45112;PMS5003;30873;53.908;27.576;2022-09-09T07:18:19;16.1;14.4;10.1
45112;PMS5003;30873;53.908;27.576;2022-09-09T07:23:19;14.9;13.4;8.8
45112;PMS5003;30873;53.908;27.576;2022-09-09T07:28:31;12.1;10.6;6.9
45112;PMS5003;30873;53.908;27.576;2022-09-09T07:33:30;15.4;13.6;8.9
45112;PMS5003;30873;53.908;27.576;2022-09-09T07:38:29;13.3;11.4;7.4
45112;PMS5003;30873;53.908;27.576;2022-09-09T07:43:19;11.7;10.1;7
45112;PMS5003;30873;53.908;27.576;2022-09-09T07:48:29;7.4;6;3.5
45112;PMS5003;30873;53.908;27.576;2022-09-09T07:53:19;8;7.4;4.4
45112;PMS5003;30873;53.908;27.576;2022-09-09T07:58:29;10.8;9.7;6.4
45112;PMS5003;30873;53.908;27.576;2022-09-09T08:03:25;10.9;9.3;6.2
45112;PMS5003;30873;53.908;27.576;2022-09-09T08:08:19;13.8;12.8;8.5
45112;PMS5003;30873;53.908;27.576;2022-09-09T08:13:19;17.6;15.4;11.1
45112;PMS5003;30873;53.908;27.576;2022-09-09T08:18:19;12.1;10.7;7.6
45112;PMS5003;30873;53.908;27.576;2022-09-09T08:23:42;14.3;12.6;8.5
45112;PMS5003;30873;53.908;27.576;2022-09-09T08:28:40;4.6;4.2;2.9
45112;PMS5003;30873;53.908;27.576;2022-09-09T08:33:29;3.7;2.8;2.1
45112;PMS5003;30873;53.908;27.576;2022-09-09T08:38:27;2.8;2.5;1.5
45112;PMS5003;30873;53.908;27.576;2022-09-09T08:43:20;2.7;2.1;1.4
45112;PMS5003;30873;53.908;27.576;2022-09-09T08:48:30;3.3;3.1;1.9
45112;PMS5003;30873;53.908;27.576;2022-09-09T08:53:20;16;13.7;9.7
45112;PMS5003;30873;53.908;27.576;2022-09-09T08:58:21;14.9;12.8;8.5
45112;PMS5003;30873;53.908;27.576;2022-09-09T09:08:36;5.8;5.4;4
45112;PMS5003;30873;53.908;27.576;2022-09-09T09:13:21;6.6;6.4;4.4
45112;PMS5003;30873;53.908;27.576;2022-09-09T09:18:19;6.7;6.2;4.6
45112;PMS5003;30873;53.908;27.576;2022-09-09T09:23:22;4.1;3.6;2.3
45112;PMS5003;30873;53.908;27.576;2022-09-09T09:28:22;3.2;2.8;2
45112;PMS5003;30873;53.908;27.576;2022-09-09T09:33:22;5.1;4.2;3
45112;PMS5003;30873;53.908;27.576;2022-09-09T09:38:29;5.6;5;3.6
45112;PMS5003;30873;53.908;27.576;2022-09-09T09:43:20;4.2;3.9;2.5
45112;PMS5003;30873;53.908;27.576;2022-09-09T09:48:31;5.7;4.6;3.2
45112;PMS5003;30873;53.908;27.576;2022-09-09T09:53:22;5.3;5.1;3.6
45112;PMS5003;30873;53.908;27.576;2022-09-09T09:59:05;6.4;5.8;3.8
45112;PMS5003;30873;53.908;27.576;2022-09-09T10:03:34;5.7;4.6;3.2
45112;PMS5003;30873;53.908;27.576;2022-09-09T10:08:27;9.5;8.8;6.2
45112;PMS5003;30873;53.908;27.576;2022-09-09T10:13:54;6.9;6.4;4.4
45112;PMS5003;30873;53.908;27.576;2022-09-09T10:23:26;6.4;5.8;3.9
45112;PMS5003;30873;53.908;27.576;2022-09-09T10:28:25;7.4;6.3;4.3
45112;PMS5003;30873;53.908;27.576;2022-09-09T10:33:51;15.1;14;12.2
45112;PMS5003;30873;53.908;27.576;2022-09-09T10:38:25;17.6;16.3;12.5
45112;PMS5003;30873;53.908;27.576;2022-09-09T10:43:24;10.4;9.7;7.3
45112;PMS5003;30873;53.908;27.576;2022-09-09T10:48:27;3.9;3.7;2.4
45112;PMS5003;30873;53.908;27.576;2022-09-09T10:53:35;3.6;3.3;2.4
45112;PMS5003;30873;53.908;27.576;2022-09-09T10:58:22;5.1;4.5;3.2
45112;PMS5003;30873;53.908;27.576;2022-09-09T11:03:21;3.9;3.7;2.5
45112;PMS5003;30873;53.908;27.576;2022-09-09T11:08:20;1.8;1.4;0.7
45112;PMS5003;30873;53.908;27.576;2022-09-09T11:18:20;2.5;2.2;1.3
45112;PMS5003;30873;53.908;27.576;2022-09-09T11:24:04;4.4;4;3.1
45112;PMS5003;30873;53.908;27.576;2022-09-09T11:33:25;3.8;3.3;2.1
45112;PMS5003;30873;53.908;27.576;2022-09-09T11:38:23;2.8;2.4;1.1
45112;PMS5003;30873;53.908;27.576;2022-09-09T11:43:34;3;2.6;1.6
45112;PMS5003;30873;53.908;27.576;2022-09-09T11:48:25;1.5;1.4;0.6
45112;PMS5003;30873;53.908;27.576;2022-09-09T11:53:56;6.4;6.3;5.3
45112;PMS5003;30873;53.908;27.576;2022-09-09T11:58:27;3.3;2.9;2.1
45112;PMS5003;30873;53.908;27.576;2022-09-09T12:03:38;4;3.8;2.7
45112;PMS5003;30873;53.908;27.576;2022-09-09T12:08:29;5.1;4.8;3.8
45112;PMS5003;30873;53.908;27.576;2022-09-09T12:13:29;2.3;2.3;1.2
45112;PMS5003;30873;53.908;27.576;2022-09-09T12:18:23;3.1;3;2
45112;PMS5003;30873;53.908;27.576;2022-09-09T12:23:29;3;2.5;1.6
45112;PMS5003;30873;53.908;27.576;2022-09-09T12:29:05;3.4;3;2.2
45112;PMS5003;30873;53.908;27.576;2022-09-09T12:33:34;1.9;1.5;0.7
45112;PMS5003;30873;53.908;27.576;2022-09-09T12:38:22;2;1.9;1.3
45112;PMS5003;30873;53.908;27.576;2022-09-09T12:43:28;3.8;3.1;2
45112;PMS5003;30873;53.908;27.576;2022-09-09T12:48:20;4.9;4;2.5
45112;PMS5003;30873;53.908;27.576;2022-09-09T12:53:31;5.5;5;3.5
45112;PMS5003;30873;53.908;27.576;2022-09-09T12:58:19;2.1;1.6;1.2
45112;PMS5003;30873;53.908;27.576;2022-09-09T13:03:30;2;1.6;0.9
45112;PMS5003;30873;53.908;27.576;2022-09-09T13:09:03;2.3;2.1;1.2
45112;PMS5003;30873;53.908;27.576;2022-09-09T13:13:34;4.4;4;2.8
45112;PMS5003;30873;53.908;27.576;2022-09-09T13:18:22;3.3;3.2;2.2
45112;PMS5003;30873;53.908;27.576;2022-09-09T13:23:20;2.8;2.5;1.5
45112;PMS5003;30873;53.908;27.576;2022-09-09T13:28:20;2.2;2.2;1.7
45112;PMS5003;30873;53.908;27.576;2022-09-09T13:33:41;1.7;1.8;1.3
45112;PMS5003;30873;53.908;27.576;2022-09-09T13:38:28;1.4;1.1;0.7
45112;PMS5003;30873;53.908;27.576;2022-09-09T13:43:44;2.1;2.1;1
45112;PMS5003;30873;53.908;27.576;2022-09-09T13:48:19;1.8;1.6;1.4
45112;PMS5003;30873;53.908;27.576;2022-09-09T13:53:30;2.3;2;1.2
45112;PMS5003;30873;53.908;27.576;2022-09-09T13:58:33;2.4;2.2;1.3
45112;PMS5003;30873;53.908;27.576;2022-09-09T14:03:20;4.6;4.4;3.1
45112;PMS5003;30873;53.908;27.576;2022-09-09T14:08:29;10.9;10.2;8.6
45112;PMS5003;30873;53.908;27.576;2022-09-09T14:13:44;6.5;6.3;4.8
45112;PMS5003;30873;53.908;27.576;2022-09-09T14:18:19;1.7;1.3;0.6
45112;PMS5003;30873;53.908;27.576;2022-09-09T14:23:28;2.9;2.4;1.5
45112;PMS5003;30873;53.908;27.576;2022-09-09T14:28:28;5.8;5.5;4.5
45112;PMS5003;30873;53.908;27.576;2022-09-09T14:33:31;3.2;2.9;2
45112;PMS5003;30873;53.908;27.576;2022-09-09T14:38:42;4.4;4;3
45112;PMS5003;30873;53.908;27.576;2022-09-09T14:43:20;4.6;3.5;2.4
45112;PMS5003;30873;53.908;27.576;2022-09-09T14:48:20;2.4;2;1.1
45112;PMS5003;30873;53.908;27.576;2022-09-09T14:53:20;4.1;3.6;2.6
45112;PMS5003;30873;53.908;27.576;2022-09-09T14:58:32;4.4;4;2.6
45112;PMS5003;30873;53.908;27.576;2022-09-09T15:03:28;9.1;8.6;6.1
45112;PMS5003;30873;53.908;27.576;2022-09-09T15:08:32;12.6;10.7;7.3
45112;PMS5003;30873;53.908;27.576;2022-09-09T15:13:20;9.4;8.4;6.2
45112;PMS5003;30873;53.908;27.576;2022-09-09T15:18:20;3.7;2.8;1.9
45112;PMS5003;30873;53.908;27.576;2022-09-09T15:23:20;3.2;3;2.1
45112;PMS5003;30873;53.908;27.576;2022-09-09T15:28:20;4;3.3;2.1
45112;PMS5003;30873;53.908;27.576;2022-09-09T15:33:30;12.2;11.4;7.9
45112;PMS5003;30873;53.908;27.576;2022-09-09T15:38:32;22.8;20.2;14.4
45112;PMS5003;30873;53.908;27.576;2022-09-09T15:43:20;16.6;14.9;10.1
45112;PMS5003;30873;53.908;27.576;2022-09-09T15:48:34;24.1;21.6;15.8
45112;PMS5003;30873;53.908;27.576;2022-09-09T15:53:44;28.2;25.2;16.9
45112;PMS5003;30873;53.908;27.576;2022-09-09T15:58:34;20;17.3;11.9
45112;PMS5003;30873;53.908;27.576;2022-09-09T16:03:20;18.7;16.3;11.8
45112;PMS5003;30873;53.908;27.576;2022-09-09T16:08:35;12;10.7;6.6
45112;PMS5003;30873;53.908;27.576;2022-09-09T16:13:52;6.7;5.7;3.6
45112;PMS5003;30873;53.908;27.576;2022-09-09T16:18:33;10.3;7.9;5
45112;PMS5003;30873;53.908;27.576;2022-09-09T16:23:20;10.8;9.4;5.9
45112;PMS5003;30873;53.908;27.576;2022-09-09T16:28:54;13.7;12.4;8
45112;PMS5003;30873;53.908;27.576;2022-09-09T16:33:32;14.6;12.7;8.4
45112;PMS5003;30873;53.908;27.576;2022-09-09T16:38:20;12.7;10.7;6.6
45112;PMS5003;30873;53.908;27.576;2022-09-09T16:43:30;13.3;10.4;6.1
45112;PMS5003;30873;53.908;27.576;2022-09-09T16:48:20;8.6;7.9;4.3
45112;PMS5003;30873;53.908;27.576;2022-09-09T16:53:46;11.6;10;6
45112;PMS5003;30873;53.908;27.576;2022-09-09T16:58:20;13;11.2;6.4
45112;PMS5003;30873;53.908;27.576;2022-09-09T17:03:44;11.9;10;6.1
45112;PMS5003;30873;53.908;27.576;2022-09-09T17:08:20;8.2;7.5;5.5
45112;PMS5003;30873;53.908;27.576;2022-09-09T17:13:20;8;7;4.3
45112;PMS5003;30873;53.908;27.576;2022-09-09T17:18:20;13.3;11.1;7.7
45112;PMS5003;30873;53.908;27.576;2022-09-09T17:23:42;14.1;12.2;7.9
45112;PMS5003;30873;53.908;27.576;2022-09-09T17:28:40;12.9;11.3;7.5
45112;PMS5003;30873;53.908;27.576;2022-09-09T17:33:34;13.8;11.7;7.2
45112;PMS5003;30873;53.908;27.576;2022-09-09T17:38:32;17.6;14.5;9.5
45112;PMS5003;30873;53.908;27.576;2022-09-09T17:43:42;20.2;17.1;12
45112;PMS5003;30873;53.908;27.576;2022-09-09T17:48:29;18.1;15.6;10.2
45112;PMS5003;30873;53.908;27.576;2022-09-09T17:53:43;17.5;15.2;10.6
45112;PMS5003;30873;53.908;27.576;2022-09-09T17:58:20;15.9;14;9.5
45112;PMS5003;30873;53.908;27.576;2022-09-09T18:03:20;16.1;13.8;9.1
45112;PMS5003;30873;53.908;27.576;2022-09-09T18:08:20;20.6;17.5;12.1
45112;PMS5003;30873;53.908;27.576;2022-09-09T18:13:28;24;20.8;14.2
45112;PMS5003;30873;53.908;27.576;2022-09-09T18:18:20;34.6;30;19.3
45112;PMS5003;30873;53.908;27.576;2022-09-09T18:23:35;38.1;33.5;22.3
45112;PMS5003;30873;53.908;27.576;2022-09-09T18:28:28;41.5;34.7;21.6
45112;PMS5003;30873;53.908;27.576;2022-09-09T18:33:20;40.7;35.3;22.4
45112;PMS5003;30873;53.908;27.576;2022-09-09T18:38:18;33;29;18.1
45112;PMS5003;30873;53.908;27.576;2022-09-09T18:43:20;24.4;20.2;13.4
45112;PMS5003;30873;53.908;27.576;2022-09-09T18:48:32;19.4;16.3;11
45112;PMS5003;30873;53.908;27.576;2022-09-09T18:53:20;24.8;21;12.7
45112;PMS5003;30873;53.908;27.576;2022-09-09T18:58:20;30;25.6;16.4
45112;PMS5003;30873;53.908;27.576;2022-09-09T19:03:20;39.7;34.1;21.6
45112;PMS5003;30873;53.908;27.576;2022-09-09T19:08:18;53.2;43.7;28.1
45112;PMS5003;30873;53.908;27.576;2022-09-09T19:13:32;65;51.9;34.2
45112;PMS5003;30873;53.908;27.576;2022-09-09T19:18:42;60.8;48;31.9
45112;PMS5003;30873;53.908;27.576;2022-09-09T19:23:20;50.2;40.4;25.8
45112;PMS5003;30873;53.908;27.576;2022-09-09T19:28:28;36.1;30.5;19.3
45112;PMS5003;30873;53.908;27.576;2022-09-09T19:33:20;27.9;22.3;13.3
45112;PMS5003;30873;53.908;27.576;2022-09-09T19:38:18;26.9;22.4;13.8
45112;PMS5003;30873;53.908;27.576;2022-09-09T19:43:30;31;25.8;16
45112;PMS5003;30873;53.908;27.576;2022-09-09T19:48:30;38.8;33.7;22.7
45112;PMS5003;30873;53.908;27.576;2022-09-09T19:53:30;45.3;38.2;26.3
45112;PMS5003;30873;53.908;27.576;2022-09-09T19:58:20;43.9;37.8;24.7
45112;PMS5003;30873;53.908;27.576;2022-09-09T20:03:20;33.8;31.1;21.1
45112;PMS5003;30873;53.908;27.576;2022-09-09T20:08:32;26.6;22.8;15.9
45112;PMS5003;30873;53.908;27.576;2022-09-09T20:13:27;13.5;11.5;8.2
45112;PMS5003;30873;53.908;27.576;2022-09-09T20:18:29;10.6;9.5;7
45112;PMS5003;30873;53.908;27.576;2022-09-09T20:23:28;10.1;8.9;6.2
45112;PMS5003;30873;53.908;27.576;2022-09-09T20:28:28;13;10.9;6.8
45112;PMS5003;30873;53.908;27.576;2022-09-09T20:33:58;11.5;9.6;6.2
45112;PMS5003;30873;53.908;27.576;2022-09-09T20:38:32;15.6;12;7.3
45112;PMS5003;30873;53.908;27.576;2022-09-09T20:43:20;18.3;16.1;9.2
45112;PMS5003;30873;53.908;27.576;2022-09-09T20:48:20;17.8;14.3;8.9
45112;PMS5003;30873;53.908;27.576;2022-09-09T20:53:20;17.2;13.9;8.7
45112;PMS5003;30873;53.908;27.576;2022-09-09T20:58:20;17.8;14.7;9.2
45112;PMS5003;30873;53.908;27.576;2022-09-09T21:03:20;22.2;18.5;11.4
45112;PMS5003;30873;53.908;27.576;2022-09-09T21:08:28;25.6;21.9;11.6
45112;PMS5003;30873;53.908;27.576;2022-09-09T21:13:28;23.5;18.7;11.4
45112;PMS5003;30873;53.908;27.576;2022-09-09T21:18:30;21.1;16.6;10.3
45112;PMS5003;30873;53.908;27.576;2022-09-09T21:23:20;19.4;17;10.2
45112;PMS5003;30873;53.908;27.576;2022-09-09T21:28:20;23.2;19;11.5
45112;PMS5003;30873;53.908;27.576;2022-09-09T21:33:46;21.6;18.5;11.7
45112;PMS5003;30873;53.908;27.576;2022-09-09T21:38:32;24;21;12
45112;PMS5003;30873;53.908;27.576;2022-09-09T21:43:34;29.7;24.7;15.3
45112;PMS5003;30873;53.908;27.576;2022-09-09T21:48:20;33;28.2;17.3
45112;PMS5003;30873;53.908;27.576;2022-09-09T21:53:20;37.2;30.3;18.4
45112;PMS5003;30873;53.908;27.576;2022-09-09T21:58:20;31.2;25.5;15.3
45112;PMS5003;30873;53.908;27.576;2022-09-09T22:03:20;30.2;25.8;15.1
45112;PMS5003;30873;53.908;27.576;2022-09-09T22:08:20;23.1;20;11.9
45112;PMS5003;30873;53.908;27.576;2022-09-09T22:13:30;23.7;20.7;12.9
45112;PMS5003;30873;53.908;27.576;2022-09-09T22:18:38;20.7;17.8;10.7
45112;PMS5003;30873;53.908;27.576;2022-09-09T22:23:32;18.7;15.6;9.9
45112;PMS5003;30873;53.908;27.576;2022-09-09T22:28:20;16.2;13.4;7.8
45112;PMS5003;30873;53.908;27.576;2022-09-09T22:34:10;18.7;15.5;8.9
45112;PMS5003;30873;53.908;27.576;2022-09-09T22:38:32;15.8;13.3;8.1
45112;PMS5003;30873;53.908;27.576;2022-09-09T22:43:20;12;10.2;6.2
45112;PMS5003;30873;53.908;27.576;2022-09-09T22:48:36;11.1;9.3;5.5
45112;PMS5003;30873;53.908;27.576;2022-09-09T22:53:50;12.2;10;5.5
45112;PMS5003;30873;53.908;27.576;2022-09-09T22:58:20;11.5;10.1;6.5
45112;PMS5003;30873;53.908;27.576;2022-09-09T23:03:56;12.8;10.3;6.8
45112;PMS5003;30873;53.908;27.576;2022-09-09T23:08:20;12.8;9.8;6.1
45112;PMS5003;30873;53.908;27.576;2022-09-09T23:13:41;10.3;8.8;5.6
45112;PMS5003;30873;53.908;27.576;2022-09-09T23:18:42;11.3;9.8;5.7
45112;PMS5003;30873;53.908;27.576;2022-09-09T23:23:20;16.2;12;7.6
45112;PMS5003;30873;53.908;27.576;2022-09-09T23:28:20;27.1;22.9;14.3
45112;PMS5003;30873;53.908;27.576;2022-09-09T23:33:44;29.5;24;14.8
45112;PMS5003;30873;53.908;27.576;2022-09-09T23:38:20;27.4;23;14.2
45112;PMS5003;30873;53.908;27.576;2022-09-09T23:43:28;20.2;17.2;10.9
45112;PMS5003;30873;53.908;27.576;2022-09-09T23:48:20;14.4;11.7;7
45112;PMS5003;30873;53.908;27.576;2022-09-09T23:53:20;10.2;9.2;5.9
45112;PMS5003;30873;53.908;27.576;2022-09-09T23:58:29;9.6;8.7;4.9
